sensor_id;sensor_type;location;lat;lon;timestamp;P1;durP1;ratioP1;P2;durP2;ratioP2
34988;SDS011;21192;40.182;44.516;2024-03-23T00:56:14;11.55;;;6.43;;
34988;SDS011;21192;40.182;44.516;2024-03-23T00:58:40;11.10;;;5.65;;
34988;SDS011;21192;40.182;44.516;2024-03-23T01:01:06;10.02;;;5.20;;
34988;SDS011;21192;40.182;44.516;2024-03-23T01:03:32;11.93;;;5.82;;
34988;SDS011;21192;40.182;44.516;2024-03-23T01:05:59;9.30;;;5.20;;
34988;SDS011;21192;40.182;44.516;2024-03-23T01:08:25;10.48;;;5.63;;
34988;SDS011;21192;40.182;44.516;2024-03-23T01:10:55;8.40;;;5.13;;
34988;SDS011;21192;40.182;44.516;2024-03-23T01:13:25;8.68;;;4.75;;
34988;SDS011;21192;40.182;44.516;2024-03-23T01:15:52;7.82;;;4.40;;
34988;SDS011;21192;40.182;44.516;2024-03-23T01:18:19;8.43;;;3.78;;
34988;SDS011;21192;40.182;44.516;2024-03-23T01:20:46;7.30;;;4.40;;
34988;SDS011;21192;40.182;44.516;2024-03-23T01:23:12;8.77;;;4.50;;
34988;SDS011;21192;40.182;44.516;2024-03-23T01:25:38;9.57;;;4.60;;
34988;SDS011;21192;40.182;44.516;2024-03-23T01:28:04;7.43;;;4.10;;
34988;SDS011;21192;40.182;44.516;2024-03-23T01:30:36;8.73;;;4.65;;
34988;SDS011;21192;40.182;44.516;2024-03-23T01:33:02;9.50;;;4.65;;
34988;SDS011;21192;40.182;44.516;2024-03-23T01:35:28;9.75;;;3.92;;
34988;SDS011;21192;40.182;44.516;2024-03-23T01:37:54;11.10;;;3.83;;
34988;SDS011;21192;40.182;44.516;2024-03-23T01:40:20;8.23;;;4.60;;
34988;SDS011;21192;40.182;44.516;2024-03-23T01:42:55;8.73;;;5.07;;
34988;SDS011;21192;40.182;44.516;2024-03-23T01:45:22;7.78;;;4.55;;
34988;SDS011;21192;40.182;44.516;2024-03-23T01:47:49;15.27;;;7.70;;
34988;SDS011;21192;40.182;44.516;2024-03-23T01:50:18;14.95;;;8.43;;
34988;SDS011;21192;40.182;44.516;2024-03-23T01:52:45;14.10;;;9.07;;
34988;SDS011;21192;40.182;44.516;2024-03-23T01:55:12;12.25;;;6.15;;
34988;SDS011;21192;40.182;44.516;2024-03-23T01:57:38;14.93;;;7.53;;
34988;SDS011;21192;40.182;44.516;2024-03-23T02:00:04;14.88;;;7.97;;
34988;SDS011;21192;40.182;44.516;2024-03-23T02:02:31;28.35;;;14.68;;
34988;SDS011;21192;40.182;44.516;2024-03-23T02:04:57;13.25;;;7.10;;
34988;SDS011;21192;40.182;44.516;2024-03-23T02:07:23;9.13;;;5.45;;
34988;SDS011;21192;40.182;44.516;2024-03-23T02:09:50;16.70;;;8.32;;
34988;SDS011;21192;40.182;44.516;2024-03-23T02:12:17;7.72;;;4.50;;
34988;SDS011;21192;40.182;44.516;2024-03-23T02:14:43;6.40;;;3.60;;
34988;SDS011;21192;40.182;44.516;2024-03-23T02:17:09;7.90;;;3.40;;
34988;SDS011;21192;40.182;44.516;2024-03-23T02:19:35;6.82;;;3.28;;
34988;SDS011;21192;40.182;44.516;2024-03-23T02:22:01;5.90;;;3.10;;
34988;SDS011;21192;40.182;44.516;2024-03-23T02:24:29;8.35;;;3.65;;
34988;SDS011;21192;40.182;44.516;2024-03-23T02:26:55;7.05;;;2.97;;
34988;SDS011;21192;40.182;44.516;2024-03-23T02:29:20;5.13;;;2.92;;
34988;SDS011;21192;40.182;44.516;2024-03-23T02:31:47;8.48;;;2.50;;
34988;SDS011;21192;40.182;44.516;2024-03-23T02:34:13;5.82;;;3.03;;
34988;SDS011;21192;40.182;44.516;2024-03-23T02:36:39;5.70;;;2.60;;
34988;SDS011;21192;40.182;44.516;2024-03-23T02:39:04;7.38;;;3.20;;
34988;SDS011;21192;40.182;44.516;2024-03-23T02:41:30;8.00;;;3.13;;
34988;SDS011;21192;40.182;44.516;2024-03-23T02:43:56;6.50;;;3.45;;
34988;SDS011;21192;40.182;44.516;2024-03-23T02:46:22;7.93;;;3.25;;
34988;SDS011;21192;40.182;44.516;2024-03-23T02:48:48;7.28;;;3.10;;
34988;SDS011;21192;40.182;44.516;2024-03-23T02:51:14;5.88;;;3.33;;
34988;SDS011;21192;40.182;44.516;2024-03-23T02:53:40;5.75;;;3.28;;
34988;SDS011;21192;40.182;44.516;2024-03-23T02:56:06;6.18;;;3.13;;
34988;SDS011;21192;40.182;44.516;2024-03-23T02:58:33;7.15;;;3.28;;
34988;SDS011;21192;40.182;44.516;2024-03-23T03:00:59;6.80;;;3.45;;
34988;SDS011;21192;40.182;44.516;2024-03-23T03:03:25;8.85;;;3.75;;
34988;SDS011;21192;40.182;44.516;2024-03-23T03:05:57;7.43;;;3.83;;
34988;SDS011;21192;40.182;44.516;2024-03-23T03:08:23;10.25;;;3.88;;
34988;SDS011;21192;40.182;44.516;2024-03-23T03:10:49;10.68;;;4.15;;
34988;SDS011;21192;40.182;44.516;2024-03-23T03:13:15;8.60;;;3.70;;
34988;SDS011;21192;40.182;44.516;2024-03-23T03:15:42;7.10;;;3.40;;
34988;SDS011;21192;40.182;44.516;2024-03-23T03:18:09;8.20;;;3.95;;
34988;SDS011;21192;40.182;44.516;2024-03-23T03:20:38;8.38;;;3.28;;
34988;SDS011;21192;40.182;44.516;2024-03-23T03:23:05;8.35;;;3.90;;
34988;SDS011;21192;40.182;44.516;2024-03-23T03:25:31;9.20;;;3.17;;
34988;SDS011;21192;40.182;44.516;2024-03-23T03:27:57;10.07;;;4.30;;
34988;SDS011;21192;40.182;44.516;2024-03-23T03:30:23;11.65;;;4.28;;
34988;SDS011;21192;40.182;44.516;2024-03-23T03:32:49;8.07;;;4.40;;
34988;SDS011;21192;40.182;44.516;2024-03-23T03:35:16;9.43;;;4.03;;
34988;SDS011;21192;40.182;44.516;2024-03-23T03:37:42;9.98;;;4.22;;
34988;SDS011;21192;40.182;44.516;2024-03-23T03:40:08;9.48;;;3.90;;
34988;SDS011;21192;40.182;44.516;2024-03-23T03:42:34;9.35;;;3.58;;
34988;SDS011;21192;40.182;44.516;2024-03-23T03:45:00;10.75;;;3.90;;
34988;SDS011;21192;40.182;44.516;2024-03-23T03:47:26;11.07;;;3.90;;
34988;SDS011;21192;40.182;44.516;2024-03-23T03:49:52;11.95;;;3.95;;
34988;SDS011;21192;40.182;44.516;2024-03-23T03:52:18;9.80;;;3.63;;
34988;SDS011;21192;40.182;44.516;2024-03-23T03:54:44;7.15;;;3.53;;
34988;SDS011;21192;40.182;44.516;2024-03-23T03:57:10;13.10;;;4.10;;
34988;SDS011;21192;40.182;44.516;2024-03-23T03:59:36;7.05;;;3.85;;
34988;SDS011;21192;40.182;44.516;2024-03-23T04:02:02;10.07;;;3.88;;
34988;SDS011;21192;40.182;44.516;2024-03-23T04:04:28;9.02;;;3.47;;
34988;SDS011;21192;40.182;44.516;2024-03-23T04:07:00;9.07;;;4.07;;
34988;SDS011;21192;40.182;44.516;2024-03-23T04:09:26;8.18;;;3.92;;
34988;SDS011;21192;40.182;44.516;2024-03-23T04:11:52;11.90;;;4.15;;
34988;SDS011;21192;40.182;44.516;2024-03-23T04:14:19;10.23;;;4.13;;
34988;SDS011;21192;40.182;44.516;2024-03-23T04:16:45;9.95;;;4.13;;
34988;SDS011;21192;40.182;44.516;2024-03-23T04:19:11;8.57;;;3.70;;
34988;SDS011;21192;40.182;44.516;2024-03-23T04:21:37;11.23;;;4.47;;
34988;SDS011;21192;40.182;44.516;2024-03-23T04:24:03;8.77;;;4.30;;
34988;SDS011;21192;40.182;44.516;2024-03-23T04:26:30;7.68;;;4.25;;
34988;SDS011;21192;40.182;44.516;2024-03-23T04:29:05;10.27;;;4.50;;
34988;SDS011;21192;40.182;44.516;2024-03-23T04:31:31;9.73;;;4.50;;
34988;SDS011;21192;40.182;44.516;2024-03-23T04:33:59;11.80;;;4.63;;
34988;SDS011;21192;40.182;44.516;2024-03-23T04:36:29;9.60;;;4.28;;
34988;SDS011;21192;40.182;44.516;2024-03-23T04:38:56;8.70;;;4.15;;
34988;SDS011;21192;40.182;44.516;2024-03-23T04:41:23;10.70;;;3.92;;
34988;SDS011;21192;40.182;44.516;2024-03-23T04:43:49;13.07;;;5.10;;
34988;SDS011;21192;40.182;44.516;2024-03-23T04:46:15;9.30;;;4.88;;
34988;SDS011;21192;40.182;44.516;2024-03-23T04:48:40;11.13;;;5.38;;
34988;SDS011;21192;40.182;44.516;2024-03-23T04:51:06;12.40;;;5.97;;
34988;SDS011;21192;40.182;44.516;2024-03-23T04:53:32;13.30;;;6.40;;
34988;SDS011;21192;40.182;44.516;2024-03-23T04:55:58;10.80;;;6.35;;
34988;SDS011;21192;40.182;44.516;2024-03-23T04:58:24;10.88;;;6.22;;
34988;SDS011;21192;40.182;44.516;2024-03-23T05:00:54;12.63;;;5.78;;
34988;SDS011;21192;40.182;44.516;2024-03-23T05:03:20;11.15;;;5.78;;
34988;SDS011;21192;40.182;44.516;2024-03-23T05:05:49;16.10;;;5.97;;
34988;SDS011;21192;40.182;44.516;2024-03-23T05:08:15;11.65;;;6.65;;
34988;SDS011;21192;40.182;44.516;2024-03-23T05:10:42;11.88;;;6.85;;
34988;SDS011;21192;40.182;44.516;2024-03-23T05:13:11;12.25;;;6.55;;
34988;SDS011;21192;40.182;44.516;2024-03-23T05:15:37;13.45;;;7.25;;
34988;SDS011;21192;40.182;44.516;2024-03-23T05:18:03;12.32;;;6.82;;
34988;SDS011;21192;40.182;44.516;2024-03-23T05:20:30;16.15;;;5.93;;
34988;SDS011;21192;40.182;44.516;2024-03-23T05:22:57;15.35;;;6.65;;
34988;SDS011;21192;40.182;44.516;2024-03-23T05:25:23;18.67;;;5.80;;
34988;SDS011;21192;40.182;44.516;2024-03-23T05:27:49;9.85;;;5.30;;
34988;SDS011;21192;40.182;44.516;2024-03-23T05:30:14;9.93;;;5.32;;
34988;SDS011;21192;40.182;44.516;2024-03-23T05:32:40;9.40;;;4.88;;
34988;SDS011;21192;40.182;44.516;2024-03-23T05:35:08;6.93;;;3.88;;
34988;SDS011;21192;40.182;44.516;2024-03-23T05:37:34;11.60;;;4.57;;
34988;SDS011;21192;40.182;44.516;2024-03-23T05:40:02;14.35;;;4.80;;
34988;SDS011;21192;40.182;44.516;2024-03-23T05:42:29;13.85;;;5.68;;
34988;SDS011;21192;40.182;44.516;2024-03-23T05:44:55;11.23;;;5.85;;
34988;SDS011;21192;40.182;44.516;2024-03-23T05:47:21;11.15;;;5.28;;
34988;SDS011;21192;40.182;44.516;2024-03-23T05:49:46;8.45;;;5.28;;
34988;SDS011;21192;40.182;44.516;2024-03-23T05:52:13;9.23;;;4.30;;
34988;SDS011;21192;40.182;44.516;2024-03-23T05:54:38;8.02;;;3.40;;
34988;SDS011;21192;40.182;44.516;2024-03-23T05:57:04;7.20;;;3.22;;
34988;SDS011;21192;40.182;44.516;2024-03-23T05:59:33;8.95;;;3.55;;
34988;SDS011;21192;40.182;44.516;2024-03-23T06:01:59;6.45;;;3.38;;
34988;SDS011;21192;40.182;44.516;2024-03-23T06:04:25;8.02;;;4.57;;
34988;SDS011;21192;40.182;44.516;2024-03-23T06:06:51;10.73;;;4.03;;
34988;SDS011;21192;40.182;44.516;2024-03-23T06:09:17;9.63;;;4.55;;
34988;SDS011;21192;40.182;44.516;2024-03-23T06:11:44;9.32;;;4.55;;
34988;SDS011;21192;40.182;44.516;2024-03-23T06:14:10;10.43;;;4.40;;
34988;SDS011;21192;40.182;44.516;2024-03-23T06:16:36;9.20;;;4.13;;
34988;SDS011;21192;40.182;44.516;2024-03-23T06:19:02;11.80;;;5.32;;
34988;SDS011;21192;40.182;44.516;2024-03-23T06:21:31;10.27;;;4.97;;
34988;SDS011;21192;40.182;44.516;2024-03-23T06:23:58;11.68;;;5.18;;
34988;SDS011;21192;40.182;44.516;2024-03-23T06:26:24;11.05;;;4.35;;
34988;SDS011;21192;40.182;44.516;2024-03-23T06:28:50;7.63;;;4.65;;
34988;SDS011;21192;40.182;44.516;2024-03-23T06:31:16;8.27;;;2.92;;
34988;SDS011;21192;40.182;44.516;2024-03-23T06:33:43;7.97;;;3.28;;
34988;SDS011;21192;40.182;44.516;2024-03-23T06:36:09;7.05;;;3.45;;
34988;SDS011;21192;40.182;44.516;2024-03-23T06:38:36;8.85;;;4.18;;
34988;SDS011;21192;40.182;44.516;2024-03-23T06:41:03;9.65;;;5.13;;
34988;SDS011;21192;40.182;44.516;2024-03-23T06:43:33;11.20;;;5.78;;
34988;SDS011;21192;40.182;44.516;2024-03-23T06:45:59;10.80;;;4.93;;
34988;SDS011;21192;40.182;44.516;2024-03-23T06:48:25;16.08;;;5.80;;
34988;SDS011;21192;40.182;44.516;2024-03-23T06:50:55;12.90;;;6.45;;
34988;SDS011;21192;40.182;44.516;2024-03-23T06:53:24;13.63;;;6.88;;
34988;SDS011;21192;40.182;44.516;2024-03-23T06:56:00;15.05;;;6.78;;
34988;SDS011;21192;40.182;44.516;2024-03-23T06:58:26;20.95;;;6.68;;
34988;SDS011;21192;40.182;44.516;2024-03-23T07:00:52;14.55;;;6.53;;
34988;SDS011;21192;40.182;44.516;2024-03-23T07:03:18;13.95;;;6.25;;
34988;SDS011;21192;40.182;44.516;2024-03-23T07:05:45;14.18;;;5.32;;
34988;SDS011;21192;40.182;44.516;2024-03-23T07:08:11;15.57;;;6.40;;
34988;SDS011;21192;40.182;44.516;2024-03-23T07:10:40;16.13;;;6.25;;
34988;SDS011;21192;40.182;44.516;2024-03-23T07:13:06;9.98;;;4.65;;
34988;SDS011;21192;40.182;44.516;2024-03-23T07:15:32;5.95;;;3.30;;
34988;SDS011;21192;40.182;44.516;2024-03-23T07:17:58;7.25;;;3.50;;
34988;SDS011;21192;40.182;44.516;2024-03-23T07:20:24;9.15;;;3.97;;
34988;SDS011;21192;40.182;44.516;2024-03-23T07:22:50;15.43;;;5.75;;
34988;SDS011;21192;40.182;44.516;2024-03-23T07:25:16;15.95;;;5.10;;
34988;SDS011;21192;40.182;44.516;2024-03-23T07:27:42;13.68;;;4.85;;
34988;SDS011;21192;40.182;44.516;2024-03-23T07:30:08;10.63;;;3.80;;
34988;SDS011;21192;40.182;44.516;2024-03-23T07:32:34;16.45;;;3.30;;
34988;SDS011;21192;40.182;44.516;2024-03-23T07:35:01;14.38;;;4.30;;
34988;SDS011;21192;40.182;44.516;2024-03-23T07:37:27;9.98;;;4.30;;
34988;SDS011;21192;40.182;44.516;2024-03-23T07:39:54;15.35;;;5.20;;
34988;SDS011;21192;40.182;44.516;2024-03-23T07:42:19;16.70;;;5.30;;
34988;SDS011;21192;40.182;44.516;2024-03-23T07:44:45;20.98;;;6.18;;
34988;SDS011;21192;40.182;44.516;2024-03-23T07:47:11;9.95;;;4.30;;
34988;SDS011;21192;40.182;44.516;2024-03-23T07:49:39;15.60;;;4.60;;
34988;SDS011;21192;40.182;44.516;2024-03-23T07:52:05;16.85;;;5.47;;
34988;SDS011;21192;40.182;44.516;2024-03-23T07:54:33;20.83;;;6.80;;
34988;SDS011;21192;40.182;44.516;2024-03-23T07:56:59;13.20;;;4.72;;
34988;SDS011;21192;40.182;44.516;2024-03-23T07:59:25;12.02;;;3.55;;
34988;SDS011;21192;40.182;44.516;2024-03-23T08:01:51;11.77;;;3.50;;
34988;SDS011;21192;40.182;44.516;2024-03-23T08:04:17;16.67;;;3.70;;
34988;SDS011;21192;40.182;44.516;2024-03-23T08:06:42;19.60;;;4.60;;
34988;SDS011;21192;40.182;44.516;2024-03-23T08:09:08;14.10;;;4.35;;
34988;SDS011;21192;40.182;44.516;2024-03-23T08:11:34;13.88;;;4.20;;
34988;SDS011;21192;40.182;44.516;2024-03-23T08:14:00;14.50;;;4.03;;
34988;SDS011;21192;40.182;44.516;2024-03-23T08:16:26;11.20;;;4.22;;
34988;SDS011;21192;40.182;44.516;2024-03-23T08:18:53;8.23;;;3.47;;
34988;SDS011;21192;40.182;44.516;2024-03-23T08:21:21;13.18;;;4.68;;
34988;SDS011;21192;40.182;44.516;2024-03-23T08:23:47;20.48;;;6.28;;
34988;SDS011;21192;40.182;44.516;2024-03-23T08:26:14;12.65;;;5.88;;
34988;SDS011;21192;40.182;44.516;2024-03-23T08:28:41;7.85;;;3.20;;
34988;SDS011;21192;40.182;44.516;2024-03-23T08:31:08;12.70;;;4.00;;
34988;SDS011;21192;40.182;44.516;2024-03-23T08:33:35;7.63;;;3.10;;
34988;SDS011;21192;40.182;44.516;2024-03-23T08:36:02;8.70;;;3.10;;
34988;SDS011;21192;40.182;44.516;2024-03-23T08:38:31;7.85;;;3.65;;
34988;SDS011;21192;40.182;44.516;2024-03-23T08:43:24;10.30;;;4.80;;
34988;SDS011;21192;40.182;44.516;2024-03-23T08:45:50;12.38;;;3.70;;
34988;SDS011;21192;40.182;44.516;2024-03-23T08:48:17;9.35;;;4.20;;
34988;SDS011;21192;40.182;44.516;2024-03-23T08:50:45;9.40;;;3.78;;
34988;SDS011;21192;40.182;44.516;2024-03-23T08:53:12;17.65;;;4.68;;
34988;SDS011;21192;40.182;44.516;2024-03-23T08:55:38;14.38;;;4.53;;
34988;SDS011;21192;40.182;44.516;2024-03-23T08:58:04;14.90;;;5.45;;
34988;SDS011;21192;40.182;44.516;2024-03-23T09:00:33;21.15;;;6.63;;
34988;SDS011;21192;40.182;44.516;2024-03-23T09:02:59;17.13;;;5.65;;
34988;SDS011;21192;40.182;44.516;2024-03-23T09:05:27;16.55;;;6.60;;
34988;SDS011;21192;40.182;44.516;2024-03-23T09:07:55;14.93;;;5.28;;
34988;SDS011;21192;40.182;44.516;2024-03-23T09:10:21;15.88;;;5.85;;
34988;SDS011;21192;40.182;44.516;2024-03-23T09:12:47;18.20;;;5.70;;
34988;SDS011;21192;40.182;44.516;2024-03-23T09:15:13;12.30;;;3.75;;
34988;SDS011;21192;40.182;44.516;2024-03-23T09:17:39;8.98;;;4.03;;
34988;SDS011;21192;40.182;44.516;2024-03-23T09:20:05;11.40;;;4.20;;
34988;SDS011;21192;40.182;44.516;2024-03-23T09:22:31;14.95;;;4.55;;
34988;SDS011;21192;40.182;44.516;2024-03-23T09:24:57;11.65;;;4.80;;
34988;SDS011;21192;40.182;44.516;2024-03-23T09:27:23;13.40;;;5.15;;
34988;SDS011;21192;40.182;44.516;2024-03-23T09:29:49;10.93;;;3.55;;
34988;SDS011;21192;40.182;44.516;2024-03-23T09:32:15;6.88;;;3.70;;
34988;SDS011;21192;40.182;44.516;2024-03-23T09:34:41;10.45;;;3.45;;
34988;SDS011;21192;40.182;44.516;2024-03-23T09:37:07;9.98;;;3.65;;
34988;SDS011;21192;40.182;44.516;2024-03-23T09:39:33;13.05;;;3.85;;
34988;SDS011;21192;40.182;44.516;2024-03-23T09:41:58;6.18;;;3.40;;
34988;SDS011;21192;40.182;44.516;2024-03-23T09:44:24;9.88;;;2.97;;
34988;SDS011;21192;40.182;44.516;2024-03-23T09:46:54;8.60;;;2.53;;
34988;SDS011;21192;40.182;44.516;2024-03-23T09:49:21;4.03;;;2.97;;
34988;SDS011;21192;40.182;44.516;2024-03-23T09:51:47;5.93;;;2.35;;
34988;SDS011;21192;40.182;44.516;2024-03-23T09:54:12;9.27;;;3.35;;
34988;SDS011;21192;40.182;44.516;2024-03-23T09:56:38;7.53;;;3.20;;
34988;SDS011;21192;40.182;44.516;2024-03-23T09:59:05;6.80;;;3.65;;
34988;SDS011;21192;40.182;44.516;2024-03-23T10:01:31;8.63;;;4.28;;
34988;SDS011;21192;40.182;44.516;2024-03-23T10:03:57;8.25;;;3.45;;
34988;SDS011;21192;40.182;44.516;2024-03-23T10:06:23;8.57;;;3.47;;
34988;SDS011;21192;40.182;44.516;2024-03-23T10:08:52;10.23;;;4.00;;
34988;SDS011;21192;40.182;44.516;2024-03-23T10:11:20;13.32;;;5.30;;
34988;SDS011;21192;40.182;44.516;2024-03-23T10:13:46;32.78;;;6.72;;
34988;SDS011;21192;40.182;44.516;2024-03-23T10:16:20;8.55;;;3.53;;
34988;SDS011;21192;40.182;44.516;2024-03-23T10:18:48;7.85;;;3.95;;
34988;SDS011;21192;40.182;44.516;2024-03-23T10:21:15;13.52;;;5.78;;
34988;SDS011;21192;40.182;44.516;2024-03-23T10:23:42;9.02;;;4.05;;
34988;SDS011;21192;40.182;44.516;2024-03-23T10:31:25;10.50;;;4.07;;
34988;SDS011;21192;40.182;44.516;2024-03-23T10:33:52;13.45;;;4.60;;
34988;SDS011;21192;40.182;44.516;2024-03-23T10:36:21;9.73;;;4.53;;
34988;SDS011;21192;40.182;44.516;2024-03-23T10:38:49;12.90;;;5.32;;
34988;SDS011;21192;40.182;44.516;2024-03-23T10:41:17;10.07;;;4.90;;
34988;SDS011;21192;40.182;44.516;2024-03-23T10:43:49;9.15;;;4.97;;
34988;SDS011;21192;40.182;44.516;2024-03-23T10:46:15;7.72;;;5.03;;
34988;SDS011;21192;40.182;44.516;2024-03-23T10:48:41;8.85;;;5.28;;
34988;SDS011;21192;40.182;44.516;2024-03-23T10:51:08;12.93;;;5.88;;
34988;SDS011;21192;40.182;44.516;2024-03-23T10:53:35;14.95;;;6.95;;
34988;SDS011;21192;40.182;44.516;2024-03-23T10:56:02;12.60;;;6.43;;
34988;SDS011;21192;40.182;44.516;2024-03-23T10:58:43;8.32;;;4.22;;
34988;SDS011;21192;40.182;44.516;2024-03-23T11:01:13;14.32;;;4.75;;
34988;SDS011;21192;40.182;44.516;2024-03-23T11:03:39;12.50;;;6.88;;
34988;SDS011;21192;40.182;44.516;2024-03-23T11:06:10;12.30;;;6.35;;
34988;SDS011;21192;40.182;44.516;2024-03-23T11:08:56;18.67;;;8.40;;
34988;SDS011;21192;40.182;44.516;2024-03-23T11:11:22;13.07;;;7.40;;
34988;SDS011;21192;40.182;44.516;2024-03-23T11:13:50;14.70;;;7.10;;
34988;SDS011;21192;40.182;44.516;2024-03-23T11:16:26;7.00;;;3.63;;
34988;SDS011;21192;40.182;44.516;2024-03-23T11:18:55;16.30;;;8.15;;
34988;SDS011;21192;40.182;44.516;2024-03-23T11:21:59;6.75;;;4.18;;
34988;SDS011;21192;40.182;44.516;2024-03-23T11:24:25;7.57;;;3.70;;
34988;SDS011;21192;40.182;44.516;2024-03-23T11:26:51;40.88;;;6.93;;
34988;SDS011;21192;40.182;44.516;2024-03-23T11:29:17;29.10;;;5.60;;
34988;SDS011;21192;40.182;44.516;2024-03-23T11:34:19;14.93;;;7.72;;
34988;SDS011;21192;40.182;44.516;2024-03-23T11:36:45;8.88;;;5.70;;
34988;SDS011;21192;40.182;44.516;2024-03-23T11:39:16;8.23;;;5.32;;
34988;SDS011;21192;40.182;44.516;2024-03-23T11:44:18;7.82;;;5.32;;
34988;SDS011;21192;40.182;44.516;2024-03-23T11:46:48;11.75;;;6.38;;
34988;SDS011;21192;40.182;44.516;2024-03-23T11:51:51;17.58;;;9.27;;
34988;SDS011;21192;40.182;44.516;2024-03-23T11:54:24;10.60;;;6.38;;
34988;SDS011;21192;40.182;44.516;2024-03-23T11:59:39;12.82;;;7.68;;
34988;SDS011;21192;40.182;44.516;2024-03-23T12:02:09;11.80;;;6.78;;
34988;SDS011;21192;40.182;44.516;2024-03-23T12:04:40;15.43;;;8.65;;
34988;SDS011;21192;40.182;44.516;2024-03-23T12:07:10;12.25;;;8.07;;
34988;SDS011;21192;40.182;44.516;2024-03-23T12:09:41;14.75;;;9.40;;
34988;SDS011;21192;40.182;44.516;2024-03-23T12:14:41;16.70;;;12.85;;
34988;SDS011;21192;40.182;44.516;2024-03-23T12:17:11;31.17;;;15.68;;
34988;SDS011;21192;40.182;44.516;2024-03-23T12:19:38;17.45;;;10.95;;
34988;SDS011;21192;40.182;44.516;2024-03-23T12:22:05;16.20;;;10.27;;
34988;SDS011;21192;40.182;44.516;2024-03-23T12:24:32;22.98;;;10.45;;
34988;SDS011;21192;40.182;44.516;2024-03-23T12:27:02;18.98;;;8.73;;
34988;SDS011;21192;40.182;44.516;2024-03-23T12:29:30;17.33;;;8.40;;
34988;SDS011;21192;40.182;44.516;2024-03-23T12:31:59;18.80;;;9.88;;
34988;SDS011;21192;40.182;44.516;2024-03-23T12:34:28;14.15;;;8.43;;
34988;SDS011;21192;40.182;44.516;2024-03-23T12:36:55;14.30;;;9.52;;
34988;SDS011;21192;40.182;44.516;2024-03-23T12:39:21;17.27;;;9.55;;
34988;SDS011;21192;40.182;44.516;2024-03-23T12:41:48;12.65;;;7.70;;
34988;SDS011;21192;40.182;44.516;2024-03-23T12:44:14;11.88;;;8.20;;
34988;SDS011;21192;40.182;44.516;2024-03-23T12:46:41;12.13;;;7.75;;
34988;SDS011;21192;40.182;44.516;2024-03-23T12:49:07;11.13;;;7.97;;
34988;SDS011;21192;40.182;44.516;2024-03-23T12:51:33;17.40;;;8.88;;
34988;SDS011;21192;40.182;44.516;2024-03-23T12:53:59;15.90;;;9.20;;
34988;SDS011;21192;40.182;44.516;2024-03-23T12:56:25;15.75;;;9.57;;
34988;SDS011;21192;40.182;44.516;2024-03-23T12:58:53;14.88;;;8.65;;
34988;SDS011;21192;40.182;44.516;2024-03-23T13:01:22;13.98;;;9.00;;
34988;SDS011;21192;40.182;44.516;2024-03-23T13:03:49;14.93;;;9.07;;
34988;SDS011;21192;40.182;44.516;2024-03-23T13:06:18;11.90;;;9.30;;
34988;SDS011;21192;40.182;44.516;2024-03-23T13:08:45;12.85;;;9.15;;
34988;SDS011;21192;40.182;44.516;2024-03-23T13:11:11;17.50;;;9.93;;
34988;SDS011;21192;40.182;44.516;2024-03-23T13:13:38;19.85;;;11.63;;
34988;SDS011;21192;40.182;44.516;2024-03-23T13:16:04;23.60;;;14.57;;
34988;SDS011;21192;40.182;44.516;2024-03-23T13:18:30;16.25;;;11.13;;
34988;SDS011;21192;40.182;44.516;2024-03-23T13:20:57;32.50;;;21.50;;
34988;SDS011;21192;40.182;44.516;2024-03-23T13:23:24;18.95;;;12.35;;
34988;SDS011;21192;40.182;44.516;2024-03-23T13:25:53;25.17;;;15.93;;
34988;SDS011;21192;40.182;44.516;2024-03-23T13:28:21;32.88;;;21.33;;
34988;SDS011;21192;40.182;44.516;2024-03-23T13:30:51;26.10;;;17.35;;
34988;SDS011;21192;40.182;44.516;2024-03-23T13:33:17;22.38;;;14.15;;
34988;SDS011;21192;40.182;44.516;2024-03-23T13:35:53;20.70;;;12.52;;
34988;SDS011;21192;40.182;44.516;2024-03-23T13:38:20;16.88;;;10.02;;
34988;SDS011;21192;40.182;44.516;2024-03-23T13:40:57;15.15;;;9.88;;
34988;SDS011;21192;40.182;44.516;2024-03-23T13:43:25;19.90;;;11.20;;
34988;SDS011;21192;40.182;44.516;2024-03-23T13:45:55;19.10;;;11.93;;
34988;SDS011;21192;40.182;44.516;2024-03-23T13:48:23;15.45;;;9.15;;
34988;SDS011;21192;40.182;44.516;2024-03-23T13:50:59;11.98;;;7.38;;
34988;SDS011;21192;40.182;44.516;2024-03-23T13:53:26;11.30;;;7.28;;
34988;SDS011;21192;40.182;44.516;2024-03-23T13:55:52;11.50;;;7.47;;
34988;SDS011;21192;40.182;44.516;2024-03-23T13:58:18;15.93;;;10.32;;
34988;SDS011;21192;40.182;44.516;2024-03-23T14:00:44;15.32;;;8.98;;
34988;SDS011;21192;40.182;44.516;2024-03-23T14:03:11;13.77;;;8.60;;
34988;SDS011;21192;40.182;44.516;2024-03-23T14:05:40;13.07;;;8.07;;
34988;SDS011;21192;40.182;44.516;2024-03-23T14:08:06;12.10;;;8.57;;
34988;SDS011;21192;40.182;44.516;2024-03-23T14:10:33;15.13;;;8.73;;
34988;SDS011;21192;40.182;44.516;2024-03-23T14:13:00;8.40;;;5.28;;
34988;SDS011;21192;40.182;44.516;2024-03-23T14:15:27;9.60;;;6.45;;
34988;SDS011;21192;40.182;44.516;2024-03-23T14:17:53;12.07;;;6.43;;
34988;SDS011;21192;40.182;44.516;2024-03-23T14:20:22;8.98;;;6.05;;
34988;SDS011;21192;40.182;44.516;2024-03-23T14:22:48;13.18;;;7.43;;
34988;SDS011;21192;40.182;44.516;2024-03-23T14:25:15;8.77;;;5.78;;
34988;SDS011;21192;40.182;44.516;2024-03-23T14:27:42;8.95;;;5.63;;
34988;SDS011;21192;40.182;44.516;2024-03-23T14:30:10;7.25;;;4.70;;
34988;SDS011;21192;40.182;44.516;2024-03-23T14:32:37;8.75;;;4.60;;
34988;SDS011;21192;40.182;44.516;2024-03-23T14:35:03;8.13;;;4.90;;
34988;SDS011;21192;40.182;44.516;2024-03-23T14:37:30;9.32;;;5.07;;
34988;SDS011;21192;40.182;44.516;2024-03-23T14:39:56;7.55;;;5.28;;
34988;SDS011;21192;40.182;44.516;2024-03-23T14:42:22;7.85;;;5.78;;
34988;SDS011;21192;40.182;44.516;2024-03-23T14:44:49;8.70;;;5.47;;
34988;SDS011;21192;40.182;44.516;2024-03-23T14:47:16;9.30;;;5.60;;
34988;SDS011;21192;40.182;44.516;2024-03-23T14:49:43;10.88;;;6.03;;
34988;SDS011;21192;40.182;44.516;2024-03-23T14:52:13;10.05;;;6.70;;
34988;SDS011;21192;40.182;44.516;2024-03-23T14:54:39;8.73;;;5.30;;
34988;SDS011;21192;40.182;44.516;2024-03-23T14:57:05;14.73;;;7.53;;
34988;SDS011;21192;40.182;44.516;2024-03-23T14:59:34;15.48;;;9.00;;
34988;SDS011;21192;40.182;44.516;2024-03-23T15:02:03;26.65;;;15.40;;
34988;SDS011;21192;40.182;44.516;2024-03-23T15:04:35;13.55;;;8.40;;
34988;SDS011;21192;40.182;44.516;2024-03-23T15:07:01;15.82;;;9.07;;
34988;SDS011;21192;40.182;44.516;2024-03-23T15:09:27;11.82;;;7.13;;
34988;SDS011;21192;40.182;44.516;2024-03-23T15:11:53;17.85;;;10.50;;
34988;SDS011;21192;40.182;44.516;2024-03-23T15:14:20;19.02;;;12.25;;
34988;SDS011;21192;40.182;44.516;2024-03-23T15:16:46;14.90;;;9.48;;
34988;SDS011;21192;40.182;44.516;2024-03-23T15:19:14;13.63;;;8.63;;
34988;SDS011;21192;40.182;44.516;2024-03-23T15:21:42;27.30;;;16.70;;
34988;SDS011;21192;40.182;44.516;2024-03-23T15:24:09;11.75;;;7.25;;
34988;SDS011;21192;40.182;44.516;2024-03-23T15:26:37;13.15;;;7.22;;
34988;SDS011;21192;40.182;44.516;2024-03-23T15:29:03;11.23;;;7.85;;
34988;SDS011;21192;40.182;44.516;2024-03-23T15:31:37;17.10;;;10.88;;
34988;SDS011;21192;40.182;44.516;2024-03-23T15:34:03;19.27;;;10.45;;
34988;SDS011;21192;40.182;44.516;2024-03-23T15:36:29;19.58;;;11.02;;
34988;SDS011;21192;40.182;44.516;2024-03-23T15:38:56;17.27;;;10.38;;
34988;SDS011;21192;40.182;44.516;2024-03-23T15:41:22;20.40;;;13.15;;